SVFE weather

Hacienda Santa Fé Airport
Zulia, Venezuela

Public forecast

Using degrees Celsius for public forecast. Weather courtesy of forecast.io.

Closest aviation weather report (METAR) to Hacienda Santa Fé Airport

Report is more than 6 hours old.

Closest report is Santa Bárbara del Zulia Airport, 49.3 nm (91.4 km) SE. Retrieved 2016/06/08 18:00 UTC (3 years ago):

SVSZ 081800Z 00000KT CAVOK XX/XX Q1012

Closest aviation forecast (TAF) to Hacienda Santa Fé Airport

Forecast is more than 12 hours old.

Closest forecast is Villa del Rosario Airport, 51.8 nm (96.0 km) NNE. Retrieved 2019/09/09 18:00 UTC (1 month ago):

TAF SVVS 091700Z 0918/1018 18004KT 9999 BKN016 TX30/0919Z TN22/1008Z TEMPO 0919/0921 9000 DZ TEMPO 0922/1002 24005KT 9999 SCT016 SCT150